createdAt,value
2022-12-25T16:29:25.969Z,1.73
2022-12-25T16:32:30.348Z,1.63
2022-12-25T16:35:34.801Z,2.10
2022-12-25T16:38:38.619Z,1.98
2022-12-25T16:41:42.439Z,1.93
2022-12-25T16:44:47.635Z,2.00
2022-12-25T16:47:51.594Z,2.30
2022-12-25T16:50:55.411Z,1.63
2022-12-25T16:53:59.228Z,2.20
2022-12-25T16:57:03.127Z,2.10
2022-12-25T17:00:10.262Z,2.00
2022-12-25T17:03:14.250Z,1.90
2022-12-25T17:06:20.629Z,2.37
2022-12-25T17:09:24.832Z,1.83
2022-12-25T17:12:28.797Z,1.37
2022-12-25T17:15:34.123Z,2.20
2022-12-25T17:18:38.284Z,1.93
2022-12-25T17:21:42.181Z,1.87
2022-12-25T17:24:46.122Z,1.60
2022-12-25T17:27:50.627Z,1.53
2022-12-25T17:30:55.947Z,1.00
2022-12-25T17:34:01.690Z,2.00
2022-12-25T17:37:05.727Z,1.77
2022-12-25T17:40:10.730Z,1.80
2022-12-25T17:43:20.537Z,1.17
2022-12-25T17:46:27.961Z,2.33
2022-12-25T17:49:31.823Z,1.90
2022-12-25T17:52:35.673Z,2.10
2022-12-25T17:55:41.256Z,2.00
2022-12-25T17:58:45.899Z,2.30
2022-12-25T18:01:51.181Z,1.87
2022-12-25T18:04:55.087Z,1.40
2022-12-25T18:07:59.029Z,2.20
2022-12-25T18:11:05.783Z,1.87
2022-12-25T18:14:12.538Z,1.73
2022-12-25T18:17:17.709Z,1.60
2022-12-25T18:20:21.761Z,1.30
2022-12-25T18:23:25.978Z,1.20
2022-12-25T18:26:29.858Z,1.77
2022-12-25T18:29:33.669Z,1.17
2022-12-25T18:32:39.275Z,1.10
2022-12-25T18:35:44.489Z,1.50
2022-12-25T18:38:48.684Z,1.23
2022-12-25T18:42:09.673Z,1.80
2022-12-25T18:45:15.859Z,1.53
2022-12-25T18:48:22.977Z,1.27
2022-12-25T18:51:33.119Z,1.53
2022-12-25T18:54:40.301Z,0.93
2022-12-25T18:57:44.121Z,1.47
2022-12-25T19:00:47.936Z,1.90
2022-12-25T19:04:00.203Z,1.30
2022-12-25T19:07:07.881Z,1.70
2022-12-25T19:10:11.913Z,1.50
2022-12-25T19:13:15.725Z,1.80
2022-12-25T19:16:19.682Z,1.77
2022-12-25T19:19:25.528Z,1.40
2022-12-25T19:22:29.442Z,1.53
2022-12-25T19:25:33.254Z,1.30
2022-12-25T19:28:37.688Z,1.00
2022-12-25T19:31:41.835Z,0.63
2022-12-25T19:34:47.189Z,1.10
2022-12-25T19:37:51.064Z,1.13
2022-12-25T19:41:03.936Z,0.67
2022-12-25T19:44:08.080Z,1.13
2022-12-25T19:47:12.178Z,0.87
2022-12-25T19:50:17.534Z,1.17
2022-12-25T19:53:23.745Z,1.00
2022-12-25T19:56:29.029Z,0.83
2022-12-25T19:59:32.893Z,1.03
2022-12-25T20:02:36.817Z,1.07
2022-12-25T20:05:45.593Z,1.13
2022-12-25T20:08:52.497Z,1.50
2022-12-25T20:11:56.597Z,0.87
2022-12-25T20:15:00.765Z,1.10
2022-12-25T20:18:04.861Z,0.50
2022-12-25T20:21:14.156Z,0.87
2022-12-25T20:24:18.241Z,0.83
2022-12-25T20:27:22.085Z,1.10
2022-12-25T20:30:25.893Z,1.40
2022-12-25T20:33:29.701Z,1.20
2022-12-25T20:36:37.764Z,0.50
2022-12-25T20:39:42.401Z,1.17
2022-12-25T20:42:47.159Z,1.20
2022-12-25T20:45:52.849Z,1.00
2022-12-25T20:48:57.121Z,0.63
2022-12-25T20:52:05.558Z,1.07
2022-12-25T20:55:10.156Z,0.90
2022-12-25T20:58:14.552Z,1.00
2022-12-25T21:01:19.007Z,1.23
2022-12-25T21:04:23.240Z,1.23
2022-12-25T21:07:28.616Z,1.50
2022-12-25T21:10:32.465Z,1.20
2022-12-25T21:13:38.196Z,0.90
2022-12-25T21:16:43.993Z,1.30
2022-12-25T21:19:48.139Z,1.00
2022-12-25T21:22:53.686Z,1.40
2022-12-25T21:25:57.833Z,1.10
2022-12-25T21:29:03.359Z,0.70
2022-12-25T21:32:25.319Z,0.83
2022-12-25T21:35:29.301Z,1.20
2022-12-25T21:38:34.776Z,1.30
2022-12-25T21:41:39.878Z,1.07
2022-12-25T21:44:43.759Z,0.90
2022-12-25T21:48:02.156Z,0.90
2022-12-25T21:51:26.895Z,1.10
2022-12-25T21:54:32.148Z,1.40
2022-12-25T21:57:35.937Z,1.70
2022-12-25T22:00:39.748Z,1.70
2022-12-25T22:03:43.667Z,1.57
2022-12-25T22:07:05.317Z,1.27
2022-12-25T22:10:10.754Z,0.90
2022-12-25T22:13:31.968Z,1.00
2022-12-25T22:16:53.144Z,1.57
2022-12-25T22:19:57.616Z,1.23
2022-12-25T22:23:01.727Z,1.93
2022-12-25T22:26:07.809Z,1.57
2022-12-25T22:29:12.270Z,1.60
2022-12-25T22:32:17.103Z,1.40
2022-12-25T22:35:21.609Z,1.47
2022-12-25T22:38:25.392Z,1.30
2022-12-25T22:41:33.636Z,1.20
2022-12-25T22:44:37.906Z,1.53
2022-12-25T22:47:41.748Z,1.20
2022-12-25T22:50:45.493Z,1.63
2022-12-25T22:53:50.121Z,1.33
2022-12-25T23:07:16.296Z,1.70
2022-12-25T23:10:20.244Z,1.00
